createdAt,value
2023-04-04T00:00:02.084Z,86.02
2023-04-04T00:02:32.093Z,86.14
2023-04-04T00:05:00.019Z,85.81
2023-04-04T00:07:29.281Z,86.29
2023-04-04T00:09:57.057Z,86.67
2023-04-04T00:12:28.371Z,87.01
2023-04-04T00:14:57.465Z,87.17
2023-04-04T00:17:25.860Z,86.95
2023-04-04T00:19:53.679Z,86.53
2023-04-04T00:22:21.543Z,85.86
2023-04-04T00:24:51.597Z,85.69
2023-04-04T00:27:19.263Z,85.79
2023-04-04T00:29:47.102Z,85.93
2023-04-04T00:32:15.010Z,85.62
2023-04-04T00:34:43.023Z,85.75
2023-04-04T00:37:13.076Z,86.12
2023-04-04T00:39:41.798Z,86.29
2023-04-04T00:42:10.989Z,86.33
2023-04-04T00:44:38.878Z,86.28
2023-04-04T00:47:06.930Z,85.87
2023-04-04T00:49:34.872Z,84.96
2023-04-04T00:52:03.155Z,85.62
2023-04-04T00:54:31.534Z,86.15
2023-04-04T00:56:59.742Z,86.19
2023-04-04T00:59:30.123Z,86.40
2023-04-04T01:01:58.375Z,86.25
2023-04-04T01:04:26.365Z,86.93
2023-04-04T01:06:54.419Z,86.81
2023-04-04T01:11:51.751Z,87.08
2023-04-04T01:14:19.852Z,87.47
2023-04-04T01:16:50.539Z,88.09
2023-04-04T01:19:34.506Z,87.37
2023-04-04T01:22:07.744Z,87.17
2023-04-04T01:24:37.122Z,87.41
2023-04-04T01:27:07.780Z,87.69
2023-04-04T01:29:41.938Z,87.42
2023-04-04T01:32:16.751Z,88.26
2023-04-04T01:34:52.888Z,88.48
2023-04-04T01:37:29.461Z,88.42
2023-04-04T01:40:06.374Z,88.44
2023-04-04T01:42:37.995Z,89.04
2023-04-04T01:45:09.099Z,89.70
2023-04-04T01:47:41.657Z,89.22
2023-04-04T01:50:13.575Z,88.51
2023-04-04T01:52:41.390Z,88.04
2023-04-04T01:55:10.745Z,87.93
2023-04-04T01:57:40.451Z,88.19
2023-04-04T02:00:10.994Z,88.00
2023-04-04T02:02:44.686Z,88.66
2023-04-04T02:05:13.418Z,88.78
2023-04-04T02:07:41.825Z,88.83
2023-04-04T02:10:21.554Z,89.24
2023-04-04T02:12:53.902Z,88.43
2023-04-04T02:15:23.971Z,88.40
2023-04-04T02:17:52.439Z,87.68
2023-04-04T02:20:20.607Z,88.71
2023-04-04T02:22:53.723Z,88.19
2023-04-04T02:25:22.609Z,88.41
2023-04-04T02:27:52.279Z,88.64
2023-04-04T02:30:24.368Z,87.27
2023-04-04T02:32:53.004Z,87.81
2023-04-04T02:35:22.194Z,88.05
2023-04-04T02:37:51.300Z,87.76
2023-04-04T02:40:29.128Z,88.34
2023-04-04T02:42:58.473Z,88.98
2023-04-04T02:45:26.859Z,89.71
2023-04-04T02:48:03.900Z,89.67
2023-04-04T02:50:40.511Z,89.50
2023-04-04T02:53:10.260Z,89.01
2023-04-04T02:55:39.158Z,89.20
2023-04-04T02:58:08.428Z,89.20
2023-04-04T03:00:36.491Z,89.13
2023-04-04T03:03:05.358Z,88.43
2023-04-04T03:05:38.216Z,88.53
2023-04-04T03:08:06.362Z,88.75
2023-04-04T03:10:34.297Z,88.42
2023-04-04T03:13:02.187Z,90.24
2023-04-04T03:15:34.578Z,90.41
2023-04-04T03:18:03.310Z,90.60
2023-04-04T03:20:33.174Z,90.76
2023-04-04T03:23:01.069Z,90.77
2023-04-04T03:25:28.960Z,90.47
2023-04-04T03:27:56.792Z,90.82
2023-04-04T03:30:27.206Z,91.65
2023-04-04T03:32:57.329Z,91.40
2023-04-04T03:35:25.529Z,91.30
2023-04-04T03:37:54.737Z,90.86
2023-04-04T03:40:22.643Z,91.09
2023-04-04T03:42:51.466Z,90.96
2023-04-04T03:45:21.116Z,90.35
2023-04-04T03:47:49.161Z,90.81
2023-04-04T03:50:18.452Z,90.91
2023-04-04T03:52:52.570Z,90.78
2023-04-04T03:55:20.420Z,90.71
2023-04-04T03:57:48.289Z,90.34
2023-04-04T04:00:17.677Z,90.32
2023-04-04T04:02:46.466Z,89.98
2023-04-04T04:05:14.597Z,89.78
2023-04-04T04:07:45.952Z,90.23
2023-04-04T04:10:15.064Z,90.37
2023-04-04T04:12:42.860Z,90.03
2023-04-04T04:15:11.601Z,90.45
2023-04-04T04:17:41.981Z,90.19
2023-04-04T04:20:12.362Z,90.97
2023-04-04T04:22:49.468Z,91.91
2023-04-04T04:25:17.776Z,90.86
2023-04-04T04:27:57.435Z,91.22
2023-04-04T04:30:26.739Z,92.11
2023-04-04T04:32:54.706Z,91.30
2023-04-04T04:35:27.858Z,91.98
2023-04-04T04:37:58.194Z,91.14
2023-04-04T04:40:26.145Z,91.01
2023-04-04T04:43:05.957Z,90.94
2023-04-04T04:45:33.814Z,90.80
2023-04-04T04:48:08.269Z,91.13
2023-04-04T04:50:44.354Z,90.94
2023-04-04T04:53:15.176Z,90.66
2023-04-04T04:55:43.803Z,91.26
2023-04-04T04:58:12.202Z,91.19
2023-04-04T05:00:45.457Z,91.32
2023-04-04T05:03:13.593Z,91.92
2023-04-04T05:05:48.297Z,91.23
2023-04-04T05:08:18.857Z,91.05
2023-04-04T05:11:09.603Z,92.11
2023-04-04T05:13:38.488Z,92.41
2023-04-04T05:16:06.824Z,92.49
2023-04-04T05:18:36.838Z,91.89
2023-04-04T05:21:09.562Z,92.00
2023-04-04T05:23:38.939Z,91.71
2023-04-04T05:26:08.133Z,92.55
2023-04-04T05:28:40.583Z,91.83
2023-04-04T05:31:08.511Z,92.33
2023-04-04T05:33:37.699Z,92.82
2023-04-04T05:36:13.070Z,92.26
2023-04-04T05:38:56.963Z,92.23
2023-04-04T05:41:29.750Z,92.06
2023-04-04T05:44:03.961Z,90.86
2023-04-04T05:46:31.879Z,91.45
2023-04-04T05:48:59.700Z,89.81
2023-04-04T05:51:28.215Z,90.54
2023-04-04T05:54:10.659Z,90.04
2023-04-04T05:56:39.892Z,88.79
2023-04-04T05:59:14.587Z,88.63
2023-04-04T06:01:52.805Z,88.13
2023-04-04T06:04:20.976Z,87.71
2023-04-04T06:06:49.285Z,86.09
2023-04-04T06:09:18.478Z,85.13
2023-04-04T06:11:46.349Z,85.26
2023-04-04T06:14:15.346Z,85.05
2023-04-04T06:16:44.928Z,84.63
2023-04-04T06:19:12.962Z,84.20
2023-04-04T06:21:40.832Z,83.69
2023-04-04T06:24:09.926Z,82.79
2023-04-04T06:26:39.261Z,81.02
2023-04-04T06:29:07.432Z,81.39
2023-04-04T06:31:38.188Z,80.55
2023-04-04T06:34:10.936Z,79.46
2023-04-04T06:37:10.898Z,78.66
2023-04-04T06:39:47.703Z,78.86
2023-04-04T06:42:23.955Z,78.85
2023-04-04T06:44:53.477Z,79.51
2023-04-04T06:47:22.488Z,79.08
2023-04-04T06:49:50.340Z,78.01
2023-04-04T06:52:18.690Z,76.00
2023-04-04T06:54:46.859Z,76.73
2023-04-04T06:57:15.829Z,78.99
2023-04-04T06:59:45.352Z,80.34
2023-04-04T07:02:13.377Z,81.33
2023-04-04T07:04:41.891Z,81.53
2023-04-04T07:07:09.672Z,82.06
2023-04-04T07:09:37.610Z,80.39
2023-04-04T07:12:05.936Z,81.02
2023-04-04T07:14:33.707Z,80.62
2023-04-04T07:17:10.702Z,83.23
2023-04-04T07:19:45.307Z,81.56
2023-04-04T07:22:13.319Z,80.59
2023-04-04T07:24:42.169Z,79.13
2023-04-04T07:27:10.007Z,78.67
2023-04-04T07:29:37.868Z,77.68
2023-04-04T07:32:07.373Z,76.58
2023-04-04T07:34:35.280Z,74.49
2023-04-04T07:37:03.094Z,72.43
2023-04-04T07:39:31.305Z,73.11
2023-04-04T07:41:59.041Z,68.99
2023-04-04T07:44:26.832Z,70.15
2023-04-04T07:47:06.267Z,65.89
2023-04-04T07:49:38.983Z,65.96
2023-04-04T07:52:07.197Z,66.16
2023-04-04T07:54:34.934Z,63.59
2023-04-04T07:57:05.480Z,63.90
2023-04-04T07:59:33.349Z,68.68
2023-04-04T08:02:01.245Z,61.34
2023-04-04T08:04:29.192Z,62.94
2023-04-04T08:06:58.459Z,62.72
2023-04-04T08:09:28.420Z,59.10
2023-04-04T08:11:56.292Z,58.80
2023-04-04T08:14:24.166Z,56.42
2023-04-04T08:16:52.571Z,58.67
2023-04-04T08:19:20.522Z,55.02
2023-04-04T08:21:48.244Z,55.05
2023-04-04T08:24:17.394Z,54.36
2023-04-04T08:26:49.064Z,54.39
2023-04-04T08:29:22.641Z,53.86
2023-04-04T08:31:50.436Z,49.10
2023-04-04T08:34:18.283Z,48.02
2023-04-04T08:36:46.149Z,48.87
2023-04-04T08:39:14.277Z,48.38
2023-04-04T08:41:46.408Z,48.73
2023-04-04T08:44:18.355Z,48.43
2023-04-04T08:46:46.840Z,48.04
2023-04-04T08:49:17.385Z,46.49
2023-04-04T08:51:47.746Z,46.96
2023-04-04T08:54:18.134Z,46.33
2023-04-04T08:56:47.447Z,46.59
2023-04-04T08:59:15.529Z,46.35
2023-04-04T09:01:43.524Z,47.11
2023-04-04T09:04:11.983Z,47.31
2023-04-04T09:06:41.001Z,46.79
2023-04-04T09:09:09.354Z,47.13
2023-04-04T09:11:37.866Z,47.82
2023-04-04T09:14:07.160Z,47.37
2023-04-04T09:16:34.981Z,46.53
2023-04-04T09:19:02.776Z,45.66
2023-04-04T09:21:34.785Z,45.14
2023-04-04T09:24:03.566Z,48.94
2023-04-04T09:26:47.909Z,45.18
2023-04-04T09:29:18.990Z,45.37
2023-04-04T09:31:47.112Z,46.28
2023-04-04T09:34:16.456Z,46.83
2023-04-04T09:36:45.573Z,46.89
2023-04-04T09:39:16.524Z,46.28
2023-04-04T09:41:46.474Z,46.98
2023-04-04T09:44:15.013Z,45.03
2023-04-04T09:46:44.437Z,46.44
2023-04-04T09:49:13.511Z,46.40
2023-04-04T09:51:42.612Z,45.34
2023-04-04T09:54:18.792Z,45.34
2023-04-04T09:56:54.514Z,45.41
2023-04-04T09:59:22.330Z,45.41
2023-04-04T10:01:53.531Z,46.83
2023-04-04T10:04:21.737Z,46.88
2023-04-04T10:06:49.820Z,45.19
2023-04-04T10:09:17.695Z,45.96
2023-04-04T10:11:45.527Z,45.57
2023-04-04T10:14:13.537Z,43.98
2023-04-04T10:16:46.525Z,44.92
2023-04-04T10:19:18.997Z,45.56
2023-04-04T10:21:47.828Z,44.75
2023-04-04T10:24:15.776Z,44.66
2023-04-04T10:26:43.562Z,44.60
2023-04-04T10:29:12.835Z,45.16
2023-04-04T10:31:44.731Z,45.91
2023-04-04T10:34:23.009Z,43.69
2023-04-04T10:36:52.532Z,46.98
2023-04-04T10:39:26.050Z,43.04
2023-04-04T10:41:56.568Z,44.16
2023-04-04T10:44:29.946Z,44.24
2023-04-04T10:47:00.613Z,44.05
2023-04-04T10:49:31.735Z,43.48
2023-04-04T10:51:59.799Z,43.75
2023-04-04T10:54:29.321Z,43.06
2023-04-04T10:57:01.458Z,40.53
2023-04-04T10:59:29.516Z,41.72
2023-04-04T11:01:59.091Z,42.17
2023-04-04T11:04:33.020Z,42.26
2023-04-04T11:07:17.865Z,43.38
2023-04-04T11:09:50.072Z,42.51
2023-04-04T11:12:23.377Z,41.74
2023-04-04T11:14:58.996Z,40.53
2023-04-04T11:17:56.176Z,38.81
2023-04-04T11:20:29.818Z,38.56
2023-04-04T11:23:08.801Z,38.25
2023-04-04T11:25:39.804Z,38.51
2023-04-04T11:28:09.887Z,40.82
2023-04-04T11:30:44.957Z,41.42
2023-04-04T11:33:15.295Z,40.04
2023-04-04T11:35:51.318Z,40.99
2023-04-04T11:38:21.681Z,40.61
2023-04-04T11:40:56.503Z,41.65
2023-04-04T11:43:24.975Z,39.78
2023-04-04T11:45:52.883Z,40.44
2023-04-04T11:48:21.778Z,39.70
2023-04-04T11:50:51.359Z,38.54
2023-04-04T11:53:19.400Z,39.02
2023-04-04T11:55:50.391Z,40.46
2023-04-04T11:58:19.377Z,40.66
2023-04-04T12:00:47.762Z,40.78
2023-04-04T12:03:18.468Z,41.62
2023-04-04T12:05:47.670Z,42.61
2023-04-04T12:08:18.010Z,43.59
2023-04-04T12:10:45.766Z,42.05
2023-04-04T12:13:14.108Z,43.35
2023-04-04T12:15:44.052Z,43.82
2023-04-04T12:18:21.650Z,42.63
2023-04-04T12:20:49.604Z,42.38
2023-04-04T12:23:19.690Z,39.62
2023-04-04T12:25:53.554Z,41.74
2023-04-04T12:28:22.245Z,40.87
2023-04-04T12:30:51.355Z,40.52
2023-04-04T12:33:19.266Z,42.07
2023-04-04T12:35:52.968Z,41.61
2023-04-04T12:38:22.214Z,40.82
2023-04-04T12:40:52.509Z,40.17
2023-04-04T12:43:20.881Z,39.55
2023-04-04T12:45:51.297Z,40.48
2023-04-04T12:48:19.762Z,41.19
2023-04-04T12:50:55.747Z,41.05
2023-04-04T12:56:15.522Z,38.32
2023-04-04T12:58:47.647Z,38.13
2023-04-04T13:01:16.926Z,38.37
2023-04-04T13:03:45.231Z,38.99
2023-04-04T13:06:14.207Z,40.68
2023-04-04T13:08:52.732Z,38.16
2023-04-04T13:11:21.703Z,39.34
2023-04-04T13:13:49.868Z,40.56
2023-04-04T13:16:31.731Z,41.80
2023-04-04T13:19:00.088Z,40.36
2023-04-04T13:21:28.246Z,39.25
2023-04-04T13:23:57.886Z,37.99
2023-04-04T13:26:26.138Z,38.60
2023-04-04T13:28:54.009Z,38.74
2023-04-04T13:31:22.190Z,37.43
2023-04-04T13:33:50.104Z,38.56
2023-04-04T13:36:18.041Z,37.15
2023-04-04T13:38:45.799Z,38.33
2023-04-04T13:41:14.970Z,38.28
2023-04-04T13:43:42.810Z,39.25
2023-04-04T13:46:10.615Z,39.90
2023-04-04T13:48:38.540Z,39.43
2023-04-04T13:51:06.547Z,39.99
2023-04-04T13:53:34.465Z,39.32
2023-04-04T13:56:17.685Z,39.47
2023-04-04T13:58:48.152Z,39.90
2023-04-04T14:01:16.039Z,38.75
2023-04-04T14:03:44.098Z,38.43
2023-04-04T14:06:12.363Z,39.40
2023-04-04T14:08:40.448Z,39.42
2023-04-04T14:11:08.271Z,40.67
2023-04-04T14:13:36.334Z,39.71
2023-04-04T14:16:06.197Z,40.05
2023-04-04T14:18:34.523Z,39.16
2023-04-04T14:21:03.023Z,39.24
2023-04-04T14:23:31.515Z,39.91
2023-04-04T14:25:59.475Z,38.00
2023-04-04T14:28:28.118Z,39.55
2023-04-04T14:30:56.203Z,37.81
2023-04-04T14:33:25.460Z,37.01
2023-04-04T14:35:53.221Z,35.45
2023-04-04T14:38:20.993Z,35.46
2023-04-04T14:40:49.308Z,35.49
2023-04-04T14:43:17.074Z,36.71
2023-04-04T14:45:44.967Z,38.09
2023-04-04T14:48:12.921Z,38.43
2023-04-04T14:50:42.823Z,38.56
2023-04-04T14:53:11.803Z,39.26
2023-04-04T14:55:39.748Z,40.64
2023-04-04T14:58:08.234Z,38.85
2023-04-04T15:00:36.289Z,38.83
2023-04-04T15:03:07.164Z,39.22
2023-04-04T15:05:35.233Z,39.13
2023-04-04T15:08:04.752Z,39.37
2023-04-04T15:10:32.549Z,40.59
2023-04-04T15:13:00.596Z,39.97
2023-04-04T15:15:29.296Z,39.89
2023-04-04T15:17:57.250Z,39.64
2023-04-04T15:20:25.143Z,38.68
2023-04-04T15:22:54.475Z,38.42
2023-04-04T15:25:23.951Z,37.38
2023-04-04T15:27:51.898Z,36.73
2023-04-04T15:30:19.775Z,39.34
2023-04-04T15:32:47.744Z,37.91
2023-04-04T15:35:19.799Z,38.06
2023-04-04T15:37:49.099Z,38.20
2023-04-04T15:40:17.670Z,38.64
2023-04-04T15:42:47.195Z,40.20
2023-04-04T15:45:16.572Z,39.69
2023-04-04T15:47:45.063Z,40.26
2023-04-04T15:50:13.269Z,39.61
2023-04-04T15:52:41.643Z,39.39
2023-04-04T15:55:13.174Z,39.76
2023-04-04T15:57:42.727Z,38.52
2023-04-04T16:00:15.075Z,40.23
2023-04-04T16:02:43.098Z,39.30
2023-04-04T16:05:11.347Z,39.63
2023-04-04T16:07:39.214Z,39.21
2023-04-04T16:10:08.097Z,39.87
2023-04-04T16:12:36.039Z,39.03
2023-04-04T16:15:05.350Z,38.84
2023-04-04T16:17:34.671Z,39.20
2023-04-04T16:20:02.572Z,39.05
2023-04-04T16:22:30.349Z,38.82
2023-04-04T16:24:58.125Z,39.49
2023-04-04T16:27:26.029Z,39.02
2023-04-04T16:29:54.053Z,38.59
2023-04-04T16:32:21.824Z,38.14
2023-04-04T16:34:51.178Z,38.42
2023-04-04T16:37:19.037Z,38.23
2023-04-04T16:39:48.134Z,37.92
2023-04-04T16:42:19.496Z,38.48
2023-04-04T16:44:47.855Z,38.61
2023-04-04T16:47:15.654Z,38.63
2023-04-04T16:49:43.545Z,39.59
2023-04-04T16:52:14.599Z,39.12
2023-04-04T16:54:43.259Z,39.18
2023-04-04T16:57:11.251Z,40.12
2023-04-04T16:59:39.116Z,39.38
2023-04-04T17:02:08.902Z,39.18
2023-04-04T17:04:39.459Z,39.63
2023-04-04T17:07:09.118Z,39.65
2023-04-04T17:09:38.313Z,39.91
2023-04-04T17:12:06.808Z,40.48
2023-04-04T17:14:35.560Z,40.15
2023-04-04T17:17:05.164Z,40.65
2023-04-04T17:19:34.991Z,40.51
2023-04-04T17:22:03.390Z,40.85
2023-04-04T17:24:31.250Z,40.73
2023-04-04T17:27:02.387Z,41.13
2023-04-04T17:29:30.674Z,42.00
2023-04-04T17:31:59.692Z,41.66
2023-04-04T17:34:27.858Z,41.64
2023-04-04T17:36:56.600Z,41.87
2023-04-04T17:39:24.567Z,42.05
2023-04-04T17:41:52.828Z,42.17
2023-04-04T17:44:22.860Z,42.05
2023-04-04T17:46:50.734Z,42.64
2023-04-04T17:49:20.566Z,42.69
2023-04-04T17:51:49.257Z,43.27
2023-04-04T17:54:17.412Z,43.44
2023-04-04T17:56:45.524Z,43.43
2023-04-04T17:59:13.897Z,43.88
2023-04-04T18:01:43.227Z,43.48
2023-04-04T18:04:11.491Z,43.45
2023-04-04T18:06:41.163Z,43.68
2023-04-04T18:09:10.162Z,44.28
2023-04-04T18:11:38.407Z,43.57
2023-04-04T18:14:06.303Z,43.81
2023-04-04T18:16:39.533Z,44.69
2023-04-04T18:19:10.920Z,44.46
2023-04-04T18:21:39.208Z,44.84
2023-04-04T18:24:11.102Z,45.90
2023-04-04T18:26:39.267Z,44.96
2023-04-04T18:29:07.427Z,45.67
2023-04-04T18:31:35.411Z,45.61
2023-04-04T18:34:03.263Z,46.73
2023-04-04T18:36:32.564Z,46.92
2023-04-04T18:39:01.118Z,47.91
2023-04-04T18:41:29.094Z,48.38
2023-04-04T18:43:57.031Z,47.51
2023-04-04T18:46:25.058Z,48.96
2023-04-04T18:48:52.894Z,50.65
2023-04-04T18:51:22.311Z,50.52
2023-04-04T18:53:53.004Z,50.22
2023-04-04T18:56:21.603Z,50.43
2023-04-04T18:58:49.715Z,49.95
2023-04-04T19:01:17.740Z,48.94
2023-04-04T19:03:48.110Z,50.89
2023-04-04T19:06:16.611Z,50.24
2023-04-04T19:08:45.310Z,50.02
2023-04-04T19:11:15.850Z,50.56
2023-04-04T19:13:43.690Z,51.29
2023-04-04T19:16:11.617Z,51.29
2023-04-04T19:18:39.444Z,52.17
2023-04-04T19:21:08.842Z,52.70
2023-04-04T19:23:38.053Z,53.10
2023-04-04T19:26:06.609Z,53.82
2023-04-04T19:28:36.448Z,54.03
2023-04-04T19:31:10.787Z,54.80
2023-04-04T19:33:39.128Z,56.98
2023-04-04T19:36:09.588Z,58.10
2023-04-04T19:38:38.784Z,59.17
2023-04-04T19:41:12.415Z,58.56
2023-04-04T19:43:45.038Z,59.08
2023-04-04T19:46:14.372Z,60.00
2023-04-04T19:48:48.833Z,60.36
2023-04-04T19:51:39.122Z,61.54
2023-04-04T19:54:11.870Z,60.05
2023-04-04T19:56:39.909Z,60.61
2023-04-04T19:59:10.933Z,60.48
2023-04-04T20:01:44.775Z,61.18
2023-04-04T20:04:15.544Z,60.88
2023-04-04T20:06:43.540Z,60.90
2023-04-04T20:09:26.348Z,62.14
2023-04-04T20:11:54.318Z,63.01
2023-04-04T20:14:23.730Z,63.54
2023-04-04T20:16:52.558Z,63.75
2023-04-04T20:19:21.824Z,66.24
2023-04-04T20:21:50.020Z,66.02
2023-04-04T20:24:18.767Z,65.93
2023-04-04T20:26:55.521Z,66.58
2023-04-04T20:29:27.142Z,67.48
2023-04-04T20:31:57.249Z,69.41
2023-04-04T20:34:38.708Z,70.47
2023-04-04T20:37:10.145Z,72.00
2023-04-04T20:39:45.118Z,71.99
2023-04-04T20:42:20.054Z,69.88
2023-04-04T20:44:49.285Z,68.21
2023-04-04T20:47:44.945Z,68.31
2023-04-04T20:50:36.494Z,69.35
2023-04-04T20:53:05.864Z,69.42
2023-04-04T20:55:36.137Z,70.49
2023-04-04T20:58:08.692Z,71.07
2023-04-04T21:00:41.698Z,71.46
2023-04-04T21:03:11.689Z,72.12
2023-04-04T21:05:41.139Z,72.17
2023-04-04T21:08:37.055Z,71.82
2023-04-04T21:11:06.797Z,72.55
2023-04-04T21:13:37.153Z,72.35
2023-04-04T21:16:09.847Z,72.55
2023-04-04T21:18:39.141Z,71.13
2023-04-04T21:21:12.977Z,70.50
2023-04-04T21:23:46.042Z,70.14
2023-04-04T21:26:31.833Z,69.79
2023-04-04T21:29:00.948Z,69.83
2023-04-04T21:31:36.409Z,70.40
2023-04-04T21:34:12.684Z,72.12
2023-04-04T21:36:41.416Z,74.41
2023-04-04T21:39:12.947Z,74.35
2023-04-04T21:41:41.300Z,74.57
2023-04-04T21:44:10.714Z,73.98
2023-04-04T21:46:41.996Z,74.52
2023-04-04T21:49:10.552Z,75.06
2023-04-04T21:51:38.763Z,75.12
2023-04-04T21:54:06.733Z,74.63
2023-04-04T21:56:34.615Z,75.23
2023-04-04T21:59:04.004Z,75.38
2023-04-04T22:01:32.949Z,76.14
2023-04-04T22:04:02.505Z,77.60
2023-04-04T22:06:31.119Z,77.05
2023-04-04T22:09:01.681Z,76.14
2023-04-04T22:11:30.363Z,76.17
2023-04-04T22:14:04.678Z,77.00
2023-04-04T22:16:36.945Z,77.52
2023-04-04T22:19:07.348Z,77.32
2023-04-04T22:21:36.472Z,76.89
2023-04-04T22:24:06.242Z,76.42
2023-04-04T22:26:34.664Z,76.77
2023-04-04T22:29:05.163Z,76.98
2023-04-04T22:31:34.957Z,76.60
2023-04-04T22:34:03.954Z,77.27
2023-04-04T22:36:35.226Z,78.37
2023-04-04T22:39:03.052Z,78.80
2023-04-04T22:41:30.907Z,78.84
2023-04-04T22:43:59.409Z,78.81
2023-04-04T22:46:28.854Z,80.20
2023-04-04T22:49:04.845Z,79.86
2023-04-04T22:51:42.856Z,79.63
2023-04-04T22:54:11.149Z,80.15
2023-04-04T22:56:38.958Z,80.82
2023-04-04T22:59:06.796Z,81.97
2023-04-04T23:01:34.803Z,81.59
2023-04-04T23:04:02.757Z,81.75
2023-04-04T23:06:31.419Z,81.58
2023-04-04T23:09:01.941Z,81.50
2023-04-04T23:11:30.645Z,82.05
2023-04-04T23:13:58.619Z,81.70
2023-04-04T23:16:26.721Z,82.51
2023-04-04T23:18:54.606Z,82.80
2023-04-04T23:21:22.772Z,82.16
2023-04-04T23:23:50.818Z,82.30
2023-04-04T23:26:20.098Z,82.38
2023-04-04T23:28:48.085Z,82.96
2023-04-04T23:31:16.861Z,82.25
2023-04-04T23:33:44.891Z,82.08
2023-04-04T23:36:12.936Z,82.09
2023-04-04T23:38:40.785Z,82.35
2023-04-04T23:41:09.516Z,83.55
2023-04-04T23:43:39.010Z,83.72
2023-04-04T23:46:07.376Z,83.21
2023-04-04T23:48:35.462Z,84.20
2023-04-04T23:51:04.276Z,84.27
2023-04-04T23:53:32.193Z,83.41
2023-04-04T23:56:00.050Z,82.58
2023-04-04T23:58:27.920Z,82.65
